sensor_id;sensor_type;location;lat;lon;timestamp;pressure;altitude;pressure_sealevel;temperature;humidity
39405;BME280;25121;51.090;17.038;2023-05-02T00:01:01;99813.00;;;14.17;49.86
39405;BME280;25121;51.090;17.038;2023-05-02T00:02:32;99821.94;;;14.24;50.36
39405;BME280;25121;51.090;17.038;2023-05-02T00:03:58;99824.03;;;14.22;50.08
39405;BME280;25121;51.090;17.038;2023-05-02T00:05:24;99810.47;;;14.15;50.30
39405;BME280;25121;51.090;17.038;2023-05-02T00:06:50;99820.25;;;14.23;50.40
39405;BME280;25121;51.090;17.038;2023-05-02T00:08:18;99820.91;;;14.25;50.29
39405;BME280;25121;51.090;17.038;2023-05-02T00:09:46;99822.97;;;14.23;50.38
39405;BME280;25121;51.090;17.038;2023-05-02T00:11:10;99817.78;;;14.21;50.52
39405;BME280;25121;51.090;17.038;2023-05-02T00:12:44;99824.44;;;14.26;50.64
39405;BME280;25121;51.090;17.038;2023-05-02T00:14:08;99809.03;;;14.19;50.58
39405;BME280;25121;51.090;17.038;2023-05-02T00:15:49;99814.03;;;14.22;50.64
39405;BME280;25121;51.090;17.038;2023-05-02T00:17:19;99812.38;;;14.21;50.62
39405;BME280;25121;51.090;17.038;2023-05-02T00:18:44;99817.56;;;14.23;50.64
39405;BME280;25121;51.090;17.038;2023-05-02T00:20:10;99804.47;;;14.20;50.59
39405;BME280;25121;51.090;17.038;2023-05-02T00:21:39;99814.66;;;14.25;50.59
39405;BME280;25121;51.090;17.038;2023-05-02T00:23:03;99798.44;;;14.18;50.70
39405;BME280;25121;51.090;17.038;2023-05-02T00:24:28;99809.44;;;14.23;50.86
39405;BME280;25121;51.090;17.038;2023-05-02T00:26:07;99799.06;;;14.20;50.57
39405;BME280;25121;51.090;17.038;2023-05-02T00:27:43;99798.44;;;14.18;50.56
39405;BME280;25121;51.090;17.038;2023-05-02T00:29:44;99801.56;;;14.21;50.12
39405;BME280;25121;51.090;17.038;2023-05-02T00:31:07;99819.22;;;14.31;50.53
39405;BME280;25121;51.090;17.038;2023-05-02T00:32:33;99795.09;;;14.16;50.51
39405;BME280;25121;51.090;17.038;2023-05-02T00:33:55;99813.84;;;14.24;50.61
39405;BME280;25121;51.090;17.038;2023-05-02T00:35:19;99805.28;;;14.20;50.77
39405;BME280;25121;51.090;17.038;2023-05-02T00:36:42;99818.63;;;14.29;50.78
39405;BME280;25121;51.090;17.038;2023-05-02T00:38:05;99798.44;;;14.18;50.64
39405;BME280;25121;51.090;17.038;2023-05-02T00:39:27;99791.16;;;14.18;50.82
39405;BME280;25121;51.090;17.038;2023-05-02T00:40:49;99779.75;;;14.16;50.98
39405;BME280;25121;51.090;17.038;2023-05-02T00:42:14;99793.47;;;14.21;50.91
39405;BME280;25121;51.090;17.038;2023-05-02T00:43:44;99797.00;;;14.22;50.88
39405;BME280;25121;51.090;17.038;2023-05-02T00:45:12;99807.81;;;14.29;50.76
39405;BME280;25121;51.090;17.038;2023-05-02T00:46:35;99806.75;;;14.30;50.86
39405;BME280;25121;51.090;17.038;2023-05-02T00:48:05;99794.47;;;14.20;50.88
39405;BME280;25121;51.090;17.038;2023-05-02T00:49:29;99803.03;;;14.24;50.83
39405;BME280;25121;51.090;17.038;2023-05-02T00:50:57;99803.03;;;14.24;50.90
39405;BME280;25121;51.090;17.038;2023-05-02T00:52:24;99776.38;;;14.08;50.91
39405;BME280;25121;51.090;17.038;2023-05-02T00:53:48;99803.63;;;14.19;51.02
39405;BME280;25121;51.090;17.038;2023-05-02T00:55:13;99777.63;;;14.05;51.06
39405;BME280;25121;51.090;17.038;2023-05-02T00:56:39;99787.19;;;14.08;51.46
39405;BME280;25121;51.090;17.038;2023-05-02T00:58:08;99799.28;;;14.12;51.19
39405;BME280;25121;51.090;17.038;2023-05-02T00:59:43;99804.25;;;14.15;51.32
39405;BME280;25121;51.090;17.038;2023-05-02T01:01:24;99797.59;;;14.11;51.43
39405;BME280;25121;51.090;17.038;2023-05-02T01:02:57;99789.28;;;13.99;51.21
39405;BME280;25121;51.090;17.038;2023-05-02T01:04:36;99786.13;;;13.95;51.22
39405;BME280;25121;51.090;17.038;2023-05-02T01:06:12;99792.81;;;13.99;51.26
39405;BME280;25121;51.090;17.038;2023-05-02T01:08:06;99781.34;;;13.91;51.15
39405;BME280;25121;51.090;17.038;2023-05-02T01:09:38;99801.94;;;13.98;51.27
39405;BME280;25121;51.090;17.038;2023-05-02T01:11:10;99807.56;;;13.97;51.43
39405;BME280;25121;51.090;17.038;2023-05-02T01:12:40;99804.22;;;13.95;51.64
39405;BME280;25121;51.090;17.038;2023-05-02T01:14:10;99794.03;;;13.90;51.73
39405;BME280;25121;51.090;17.038;2023-05-02T01:15:53;99808.97;;;13.93;51.65
39405;BME280;25121;51.090;17.038;2023-05-02T01:17:21;99784.44;;;13.81;51.59
39405;BME280;25121;51.090;17.038;2023-05-02T01:18:49;99795.88;;;13.83;51.70
39405;BME280;25121;51.090;17.038;2023-05-02T01:20:14;99791.06;;;13.72;51.95
39405;BME280;25121;51.090;17.038;2023-05-02T01:21:41;99792.53;;;13.74;52.11
39405;BME280;25121;51.090;17.038;2023-05-02T01:23:23;99789.63;;;13.69;52.14
39405;BME280;25121;51.090;17.038;2023-05-02T01:24:57;99807.28;;;13.78;52.16
39405;BME280;25121;51.090;17.038;2023-05-02T01:26:31;99795.84;;;13.70;52.19
39405;BME280;25121;51.090;17.038;2023-05-02T01:28:08;99790.41;;;13.63;52.18
39405;BME280;25121;51.090;17.038;2023-05-02T01:29:40;99790.00;;;13.66;52.29
39405;BME280;25121;51.090;17.038;2023-05-02T01:31:04;99781.25;;;13.57;52.49
39405;BME280;25121;51.090;17.038;2023-05-02T01:32:40;99792.47;;;13.61;52.67
39405;BME280;25121;51.090;17.038;2023-05-02T01:34:08;99807.88;;;13.67;52.56
39405;BME280;25121;51.090;17.038;2023-05-02T01:35:34;99814.28;;;13.66;52.75
39405;BME280;25121;51.090;17.038;2023-05-02T01:37:00;99815.34;;;13.65;52.57
39405;BME280;25121;51.090;17.038;2023-05-02T01:38:29;99796.41;;;13.52;52.75
39405;BME280;25121;51.090;17.038;2023-05-02T01:39:57;99807.66;;;13.62;52.86
39405;BME280;25121;51.090;17.038;2023-05-02T01:41:30;99810.34;;;13.62;52.86
39405;BME280;25121;51.090;17.038;2023-05-02T01:42:59;99810.78;;;13.66;52.89
39405;BME280;25121;51.090;17.038;2023-05-02T01:44:29;99794.13;;;13.55;52.86
39405;BME280;25121;51.090;17.038;2023-05-02T01:46:04;99791.63;;;13.54;52.81
39405;BME280;25121;51.090;17.038;2023-05-02T01:47:32;99815.75;;;13.69;52.99
39405;BME280;25121;51.090;17.038;2023-05-02T01:49:09;99793.94;;;13.57;52.88
39405;BME280;25121;51.090;17.038;2023-05-02T01:50:33;99810.78;;;13.66;52.88
39405;BME280;25121;51.090;17.038;2023-05-02T01:52:04;99817.84;;;13.73;52.72
39405;BME280;25121;51.090;17.038;2023-05-02T01:53:29;99799.97;;;13.66;52.89
39405;BME280;25121;51.090;17.038;2023-05-02T01:54:59;99819.94;;;13.78;52.81
39405;BME280;25121;51.090;17.038;2023-05-02T01:56:26;99819.53;;;13.81;52.83
39405;BME280;25121;51.090;17.038;2023-05-02T01:57:51;99809.59;;;13.82;52.76
39405;BME280;25121;51.090;17.038;2023-05-02T01:59:19;99816.03;;;13.87;52.65
39405;BME280;25121;51.090;17.038;2023-05-02T02:00:44;99808.34;;;13.84;52.70
39405;BME280;25121;51.090;17.038;2023-05-02T02:02:13;99819.78;;;13.93;52.63
39405;BME280;25121;51.090;17.038;2023-05-02T02:03:45;99798.78;;;13.82;52.51
39405;BME280;25121;51.090;17.038;2023-05-02T02:05:19;99801.50;;;13.88;52.54
39405;BME280;25121;51.090;17.038;2023-05-02T02:06:47;99811.28;;;13.96;52.58
39405;BME280;25121;51.090;17.038;2023-05-02T02:08:22;99807.75;;;13.95;52.45
39405;BME280;25121;51.090;17.038;2023-05-02T02:09:49;99802.34;;;13.89;52.38
39405;BME280;25121;51.090;17.038;2023-05-02T02:11:17;99800.47;;;13.89;52.21
39405;BME280;25121;51.090;17.038;2023-05-02T02:12:51;99797.97;;;13.88;52.25
39405;BME280;25121;51.090;17.038;2023-05-02T02:14:22;99820.84;;;13.98;52.33
39405;BME280;25121;51.090;17.038;2023-05-02T02:15:58;99805.84;;;13.83;52.30
39405;BME280;25121;51.090;17.038;2023-05-02T02:17:48;99827.47;;;13.96;52.33
39405;BME280;25121;51.090;17.038;2023-05-02T02:19:30;99810.41;;;13.82;52.21
39405;BME280;25121;51.090;17.038;2023-05-02T02:21:03;99829.13;;;13.90;52.22
39405;BME280;25121;51.090;17.038;2023-05-02T02:23:08;99833.72;;;13.90;52.36
39405;BME280;25121;51.090;17.038;2023-05-02T02:24:43;99810.63;;;13.74;52.46
39405;BME280;25121;51.090;17.038;2023-05-02T02:58:17;99865.13;;;13.56;52.75
39405;BME280;25121;51.090;17.038;2023-05-02T02:59:53;99858.09;;;13.55;52.81
39405;BME280;25121;51.090;17.038;2023-05-02T03:01:42;99864.75;;;13.59;52.96
39405;BME280;25121;51.090;17.038;2023-05-02T03:03:16;99882.66;;;13.73;53.03
39405;BME280;25121;51.090;17.038;2023-05-02T03:04:48;99881.00;;;13.72;53.14
39405;BME280;25121;51.090;17.038;2023-05-02T03:06:20;99861.25;;;13.65;53.02
39405;BME280;25121;51.090;17.038;2023-05-02T03:08:10;99878.53;;;13.77;52.93
39405;BME280;25121;51.090;17.038;2023-05-02T03:09:46;99870.63;;;13.69;53.10
39405;BME280;25121;51.090;17.038;2023-05-02T03:11:13;99876.44;;;13.73;52.90
39405;BME280;25121;51.090;17.038;2023-05-02T03:12:48;99891.66;;;13.87;53.01
39405;BME280;25121;51.090;17.038;2023-05-02T03:14:20;99864.63;;;13.74;52.77
39405;BME280;25121;51.090;17.038;2023-05-02T03:17:48;99893.97;;;13.90;52.83
39405;BME280;25121;51.090;17.038;2023-05-02T03:19:12;99889.19;;;13.92;52.80
39405;BME280;25121;51.090;17.038;2023-05-02T03:20:43;99881.88;;;13.86;52.75
39405;BME280;25121;51.090;17.038;2023-05-02T03:22:14;99888.16;;;13.93;52.82
39405;BME280;25121;51.090;17.038;2023-05-02T03:23:52;99874.41;;;13.88;52.59
39405;BME280;25121;51.090;17.038;2023-05-02T03:25:24;99887.34;;;13.99;52.50
39405;BME280;25121;51.090;17.038;2023-05-02T03:26:54;99870.69;;;13.89;52.41
39405;BME280;25121;51.090;17.038;2023-05-02T03:28:34;99884.44;;;14.01;52.36
39405;BME280;25121;51.090;17.038;2023-05-02T03:30:14;99895.91;;;14.10;52.17
39405;BME280;25121;51.090;17.038;2023-05-02T03:31:39;99900.06;;;14.12;52.15
39405;BME280;25121;51.090;17.038;2023-05-02T03:33:07;99876.97;;;14.03;52.16
39405;BME280;25121;51.090;17.038;2023-05-02T03:34:38;99876.78;;;14.05;52.09
39405;BME280;25121;51.090;17.038;2023-05-02T03:36:42;99885.94;;;14.10;51.90
39405;BME280;25121;51.090;17.038;2023-05-02T03:38:22;99895.31;;;14.14;51.68
39405;BME280;25121;51.090;17.038;2023-05-02T03:40:03;99896.75;;;14.17;51.74
39405;BME280;25121;51.090;17.038;2023-05-02T03:41:45;99923.63;;;14.32;51.38
39405;BME280;25121;51.090;17.038;2023-05-02T03:43:19;99923.00;;;14.36;51.57
39405;BME280;25121;51.090;17.038;2023-05-02T03:44:42;99923.66;;;14.38;51.49
39405;BME280;25121;51.090;17.038;2023-05-02T03:46:23;99925.72;;;14.43;51.54
39405;BME280;25121;51.090;17.038;2023-05-02T03:48:17;99918.44;;;14.37;51.58
39405;BME280;25121;51.090;17.038;2023-05-02T03:50:00;99921.34;;;14.42;51.43
39405;BME280;25121;51.090;17.038;2023-05-02T03:51:45;99925.72;;;14.43;51.46
39405;BME280;25121;51.090;17.038;2023-05-02T03:53:24;99926.97;;;14.47;51.37
39405;BME280;25121;51.090;17.038;2023-05-02T03:54:52;99932.81;;;14.51;51.51
39405;BME280;25121;51.090;17.038;2023-05-02T03:56:21;99913.66;;;14.46;51.42
39405;BME280;25121;51.090;17.038;2023-05-02T03:57:55;99928.25;;;14.51;51.62
39405;BME280;25121;51.090;17.038;2023-05-02T03:59:18;99941.41;;;14.61;51.57
39405;BME280;25121;51.090;17.038;2023-05-02T04:00:44;99928.25;;;14.51;51.37
39405;BME280;25121;51.090;17.038;2023-05-02T04:02:09;99916.56;;;14.51;51.36
39405;BME280;25121;51.090;17.038;2023-05-02T04:03:42;99930.38;;;14.56;51.52
39405;BME280;25121;51.090;17.038;2023-05-02T04:05:15;99931.63;;;14.60;51.52
39405;BME280;25121;51.090;17.038;2023-05-02T04:06:40;99926.44;;;14.58;51.67
39405;BME280;25121;51.090;17.038;2023-05-02T04:08:05;99945.97;;;14.67;51.68
39405;BME280;25121;51.090;17.038;2023-05-02T04:09:35;99946.63;;;14.69;51.95
39405;BME280;25121;51.090;17.038;2023-05-02T04:11:02;99951.19;;;14.75;52.05
39405;BME280;25121;51.090;17.038;2023-05-02T04:12:25;99943.69;;;14.71;52.22
39405;BME280;25121;51.090;17.038;2023-05-02T04:13:48;99956.22;;;14.78;52.64
39405;BME280;25121;51.090;17.038;2023-05-02T04:15:14;99942.84;;;14.70;52.73
39405;BME280;25121;51.090;17.038;2023-05-02T04:16:42;99941.84;;;14.71;52.73
39405;BME280;25121;51.090;17.038;2023-05-02T04:18:19;99946.19;;;14.72;53.38
39405;BME280;25121;51.090;17.038;2023-05-02T04:19:48;99967.84;;;14.85;53.35
39405;BME280;25121;51.090;17.038;2023-05-02T04:21:32;99948.72;;;14.74;53.55
39405;BME280;25121;51.090;17.038;2023-05-02T04:23:05;99949.53;;;14.74;53.74
39405;BME280;25121;51.090;17.038;2023-05-02T04:24:37;99967.22;;;14.77;53.95
39405;BME280;25121;51.090;17.038;2023-05-02T04:26:07;99975.75;;;14.80;53.83
39405;BME280;25121;51.090;17.038;2023-05-02T04:27:37;99961.19;;;14.75;54.20
39405;BME280;25121;51.090;17.038;2023-05-02T04:29:03;99985.75;;;14.86;54.39
39405;BME280;25121;51.090;17.038;2023-05-02T04:31:31;99974.06;;;14.73;54.27
39405;BME280;25121;51.090;17.038;2023-05-02T04:33:04;99989.50;;;14.79;54.40
39405;BME280;25121;51.090;17.038;2023-05-02T04:34:39;100002.78;;;14.80;54.81
39405;BME280;25121;51.090;17.038;2023-05-02T04:36:08;100008.00;;;14.82;54.89
39405;BME280;25121;51.090;17.038;2023-05-02T04:37:41;100006.75;;;14.78;55.19
39405;BME280;25121;51.090;17.038;2023-05-02T04:39:05;100011.97;;;14.79;55.05
39405;BME280;25121;51.090;17.038;2023-05-02T04:41:10;100015.28;;;14.75;55.26
39405;BME280;25121;51.090;17.038;2023-05-02T04:42:52;99999.44;;;14.65;55.17
39405;BME280;25121;51.090;17.038;2023-05-02T04:44:20;100006.94;;;14.70;55.39
39405;BME280;25121;51.090;17.038;2023-05-02T04:45:53;100001.31;;;14.64;55.58
39405;BME280;25121;51.090;17.038;2023-05-02T04:47:20;100004.44;;;14.61;55.96
39405;BME280;25121;51.090;17.038;2023-05-02T04:48:44;100025.47;;;14.73;56.40
39405;BME280;25121;51.090;17.038;2023-05-02T04:50:28;100031.09;;;14.71;56.88
39405;BME280;25121;51.090;17.038;2023-05-02T04:51:54;100014.19;;;14.62;56.97
39405;BME280;25121;51.090;17.038;2023-05-02T04:53:33;100022.31;;;14.62;57.08
39405;BME280;25121;51.090;17.038;2023-05-02T04:59:14;100033.97;;;14.63;57.72
39405;BME280;25121;51.090;17.038;2023-05-02T05:00:40;100005.38;;;14.47;58.53
39405;BME280;25121;51.090;17.038;2023-05-02T05:02:12;100023.97;;;14.57;59.37
39405;BME280;25121;51.090;17.038;2023-05-02T05:03:39;100025.22;;;14.54;59.30
39405;BME280;25121;51.090;17.038;2023-05-02T05:05:22;100011.84;;;14.46;59.63
39405;BME280;25121;51.090;17.038;2023-05-02T05:07:16;100007.03;;;14.41;60.07
39405;BME280;25121;51.090;17.038;2023-05-02T05:08:53;100002.03;;;14.45;60.00
39405;BME280;25121;51.090;17.038;2023-05-02T05:10:24;100022.25;;;14.49;60.37
39405;BME280;25121;51.090;17.038;2023-05-02T05:11:50;100033.13;;;14.56;60.67
39405;BME280;25121;51.090;17.038;2023-05-02T05:13:16;100018.09;;;14.47;61.03
39405;BME280;25121;51.090;17.038;2023-05-02T05:14:43;100041.03;;;14.57;61.21
39405;BME280;25121;51.090;17.038;2023-05-02T05:16:35;100034.78;;;14.57;61.05
39405;BME280;25121;51.090;17.038;2023-05-02T05:18:32;100014.75;;;14.44;61.06
39405;BME280;25121;51.090;17.038;2023-05-02T05:20:05;100033.06;;;14.49;61.36
39405;BME280;25121;51.090;17.038;2023-05-02T05:21:32;100037.91;;;14.54;61.51
39405;BME280;25121;51.090;17.038;2023-05-02T05:22:59;100041.03;;;14.57;61.71
39405;BME280;25121;51.090;17.038;2023-05-02T05:24:24;100020.19;;;14.51;61.94
39405;BME280;25121;51.090;17.038;2023-05-02T05:25:48;100018.13;;;14.53;61.96
39405;BME280;25121;51.090;17.038;2023-05-02T05:27:13;100048.56;;;14.69;62.11
39405;BME280;25121;51.090;17.038;2023-05-02T05:28:58;100030.22;;;14.64;62.22
39405;BME280;25121;51.090;17.038;2023-05-02T05:30:30;100042.31;;;14.75;61.90
39405;BME280;25121;51.090;17.038;2023-05-02T05:31:55;100057.75;;;14.81;62.04
39405;BME280;25121;51.090;17.038;2023-05-02T05:33:23;100045.69;;;14.83;61.51
39405;BME280;25121;51.090;17.038;2023-05-02T05:34:45;100051.50;;;14.87;61.93
39405;BME280;25121;51.090;17.038;2023-05-02T05:36:09;100050.50;;;14.88;62.16
39405;BME280;25121;51.090;17.038;2023-05-02T05:37:37;100049.44;;;14.89;62.15
39405;BME280;25121;51.090;17.038;2023-05-02T05:39:10;100053.81;;;14.90;62.45
39405;BME280;25121;51.090;17.038;2023-05-02T05:40:35;100047.97;;;14.86;62.65
39405;BME280;25121;51.090;17.038;2023-05-02T05:42:01;100046.94;;;14.88;62.32
39405;BME280;25121;51.090;17.038;2023-05-02T05:43:33;100054.03;;;14.95;63.05
39405;BME280;25121;51.090;17.038;2023-05-02T05:44:59;100064.47;;;14.98;62.85
39405;BME280;25121;51.090;17.038;2023-05-02T05:46:26;100066.97;;;15.06;62.91
39405;BME280;25121;51.090;17.038;2023-05-02T05:47:55;100074.25;;;15.13;62.84
39405;BME280;25121;51.090;17.038;2023-05-02T05:49:32;100065.75;;;15.16;62.68
39405;BME280;25121;51.090;17.038;2023-05-02T05:51:12;100068.25;;;15.24;62.50
39405;BME280;25121;51.090;17.038;2023-05-02T05:52:35;100063.66;;;15.24;62.11
39405;BME280;25121;51.090;17.038;2023-05-02T05:53:58;100073.88;;;15.36;61.95
39405;BME280;25121;51.090;17.038;2023-05-02T05:55:45;100067.84;;;15.40;61.98
39405;BME280;25121;51.090;17.038;2023-05-02T05:57:24;100075.31;;;15.45;62.10
39405;BME280;25121;51.090;17.038;2023-05-02T05:59:09;100062.22;;;15.48;62.22
39405;BME280;25121;51.090;17.038;2023-05-02T06:00:37;100083.47;;;15.65;62.36
39405;BME280;25121;51.090;17.038;2023-05-02T06:04:05;100068.06;;;15.72;61.77
39405;BME280;25121;51.090;17.038;2023-05-02T06:05:52;100079.31;;;15.82;61.38
39405;BME280;25121;51.090;17.038;2023-05-02T06:07:17;100073.06;;;15.82;61.12
39405;BME280;25121;51.090;17.038;2023-05-02T06:09:05;100099.94;;;16.03;60.76
39405;BME280;25121;51.090;17.038;2023-05-02T06:10:54;100084.06;;;16.07;60.47
39405;BME280;25121;51.090;17.038;2023-05-02T06:12:27;100078.25;;;16.10;60.28
39405;BME280;25121;51.090;17.038;2023-05-02T06:14:12;100089.69;;;16.25;60.14
39405;BME280;25121;51.090;17.038;2023-05-02T06:16:10;100090.25;;;16.41;60.17
39405;BME280;25121;51.090;17.038;2023-05-02T06:17:45;100083.97;;;16.47;59.85
39405;BME280;25121;51.090;17.038;2023-05-02T06:19:15;100092.28;;;16.58;59.31
39405;BME280;25121;51.090;17.038;2023-05-02T06:20:38;100089.13;;;16.62;58.57
39405;BME280;25121;51.090;17.038;2023-05-02T06:22:04;100108.94;;;16.82;58.88
39405;BME280;25121;51.090;17.038;2023-05-02T06:23:33;100106.81;;;16.84;58.84
39405;BME280;25121;51.090;17.038;2023-05-02T06:25:00;100109.91;;;16.94;58.84
39405;BME280;25121;51.090;17.038;2023-05-02T06:26:29;100100.72;;;16.95;58.43
39405;BME280;25121;51.090;17.038;2023-05-02T06:27:58;100114.25;;;17.02;58.54
39405;BME280;25121;51.090;17.038;2023-05-02T06:29:25;100096.72;;;16.98;58.18
39405;BME280;25121;51.090;17.038;2023-05-02T06:30:58;100104.84;;;17.05;57.79
39405;BME280;25121;51.090;17.038;2023-05-02T06:32:24;100115.06;;;17.09;57.47
39405;BME280;25121;51.090;17.038;2023-05-02T06:33:53;100113.16;;;17.10;57.34
39405;BME280;25121;51.090;17.038;2023-05-02T06:35:18;100102.34;;;17.03;56.94
39405;BME280;25121;51.090;17.038;2023-05-02T06:36:43;100123.75;;;17.18;56.62
39405;BME280;25121;51.090;17.038;2023-05-02T06:38:14;100111.28;;;17.10;56.51
39405;BME280;25121;51.090;17.038;2023-05-02T06:39:39;100119.41;;;17.17;56.00
39405;BME280;25121;51.090;17.038;2023-05-02T06:41:05;100123.75;;;17.18;56.32
39405;BME280;25121;51.090;17.038;2023-05-02T06:42:35;100121.25;;;17.16;56.27
39405;BME280;25121;51.090;17.038;2023-05-02T06:44:01;100133.75;;;17.24;56.88
39405;BME280;25121;51.090;17.038;2023-05-02T06:45:24;100124.56;;;17.25;56.58
39405;BME280;25121;51.090;17.038;2023-05-02T06:46:57;100120.13;;;17.31;56.52
39405;BME280;25121;51.090;17.038;2023-05-02T06:48:37;100139.84;;;17.51;55.74
39405;BME280;25121;51.090;17.038;2023-05-02T06:50:19;100129.53;;;17.60;55.85
39405;BME280;25121;51.090;17.038;2023-05-02T06:51:53;100137.81;;;17.72;55.79
39405;BME280;25121;51.090;17.038;2023-05-02T06:53:23;100133.78;;;17.81;55.60
39405;BME280;25121;51.090;17.038;2023-05-02T06:55:05;100139.19;;;17.88;55.20
39405;BME280;25121;51.090;17.038;2023-05-02T06:56:49;100153.22;;;18.10;54.95
39405;BME280;25121;51.090;17.038;2023-05-02T06:58:23;100132.44;;;18.15;54.53
39405;BME280;25121;51.090;17.038;2023-05-02T06:59:48;100136.50;;;18.31;54.04
39405;BME280;25121;51.090;17.038;2023-05-02T07:01:15;100138.59;;;18.47;53.62
39405;BME280;25121;51.090;17.038;2023-05-02T07:02:38;100136.03;;;18.52;53.41
39405;BME280;25121;51.090;17.038;2023-05-02T07:04:02;100134.22;;;18.65;53.10
39405;BME280;25121;51.090;17.038;2023-05-02T07:08:23;100134.41;;;18.88;52.76
39405;BME280;25121;51.090;17.038;2023-05-02T07:17:46;100170.44;;;20.05;50.78
39405;BME280;25121;51.090;17.038;2023-05-02T07:19:30;100163.81;;;20.36;50.38
39405;BME280;25121;51.090;17.038;2023-05-02T07:23:15;100163.03;;;20.99;49.08
39405;BME280;25121;51.090;17.038;2023-05-02T07:26:28;100165.44;;;21.53;47.40
39405;BME280;25121;51.090;17.038;2023-05-02T07:28:10;100148.16;;;21.64;47.18
39405;BME280;25121;51.090;17.038;2023-05-02T07:29:52;100146.06;;;21.88;46.66
39405;BME280;25121;51.090;17.038;2023-05-02T07:31:56;100163.00;;;22.19;46.55
39405;BME280;25121;51.090;17.038;2023-05-02T07:33:35;100161.09;;;22.36;45.82
39405;BME280;25121;51.090;17.038;2023-05-02T07:35:03;100162.84;;;22.65;45.08
39405;BME280;25121;51.090;17.038;2023-05-02T07:36:28;100172.47;;;22.89;44.77
39405;BME280;25121;51.090;17.038;2023-05-02T07:37:58;100170.34;;;23.13;44.15
39405;BME280;25121;51.090;17.038;2023-05-02T07:40:08;100160.38;;;23.29;43.75
39405;BME280;25121;51.090;17.038;2023-05-02T07:41:44;100169.13;;;23.53;43.29
39405;BME280;25121;51.090;17.038;2023-05-02T07:43:27;100160.78;;;23.70;42.40
39405;BME280;25121;51.090;17.038;2023-05-02T07:45:19;100166.72;;;23.89;42.54
39405;BME280;25121;51.090;17.038;2023-05-02T07:52:20;100173.47;;;24.93;40.60
39405;BME280;25121;51.090;17.038;2023-05-02T07:54:00;100186.66;;;24.97;40.46
39405;BME280;25121;51.090;17.038;2023-05-02T07:55:39;100188.31;;;24.98;40.15
39405;BME280;25121;51.090;17.038;2023-05-02T07:57:20;100197.75;;;25.12;39.22
39405;BME280;25121;51.090;17.038;2023-05-02T07:59:05;100196.44;;;25.25;38.74
39405;BME280;25121;51.090;17.038;2023-05-02T08:00:54;100181.91;;;25.45;38.44
39405;BME280;25121;51.090;17.038;2023-05-02T08:06:39;100206.69;;;25.60;37.92
39405;BME280;25121;51.090;17.038;2023-05-02T08:11:35;100213.66;;;26.29;36.37
39405;BME280;25121;51.090;17.038;2023-05-02T08:13:42;100201.25;;;26.37;35.96
39405;BME280;25121;51.090;17.038;2023-05-02T08:15:43;100206.19;;;26.55;35.38
39405;BME280;25121;51.090;17.038;2023-05-02T08:18:40;100214.97;;;26.68;35.17
39405;BME280;25121;51.090;17.038;2023-05-02T08:21:07;100211.69;;;26.60;35.14
39405;BME280;25121;51.090;17.038;2023-05-02T08:22:34;100217.75;;;26.52;34.67
39405;BME280;25121;51.090;17.038;2023-05-02T08:24:01;100216.66;;;26.43;34.55
39405;BME280;25121;51.090;17.038;2023-05-02T08:25:33;100205.09;;;26.26;34.54
39405;BME280;25121;51.090;17.038;2023-05-02T08:27:05;100203.47;;;26.14;34.41
39405;BME280;25121;51.090;17.038;2023-05-02T08:28:34;100208.13;;;26.04;34.44
39405;BME280;25121;51.090;17.038;2023-05-02T08:29:59;100210.63;;;25.95;34.20
39405;BME280;25121;51.090;17.038;2023-05-02T08:31:49;100212.25;;;25.86;34.40
39405;BME280;25121;51.090;17.038;2023-05-02T08:33:25;100215.53;;;25.83;34.24
39405;BME280;25121;51.090;17.038;2023-05-02T08:34:58;100217.19;;;25.84;34.19
39405;BME280;25121;51.090;17.038;2023-05-02T08:38:42;100216.66;;;25.82;34.19
39405;BME280;25121;51.090;17.038;2023-05-02T08:57:16;100236.88;;;24.44;35.27
39405;BME280;25121;51.090;17.038;2023-05-02T08:58:57;100243.28;;;24.18;35.25
39405;BME280;25121;51.090;17.038;2023-05-02T09:00:39;100252.16;;;23.98;35.47
39405;BME280;25121;51.090;17.038;2023-05-02T09:02:16;100239.25;;;23.71;35.31
39405;BME280;25121;51.090;17.038;2023-05-02T09:03:54;100242.66;;;23.56;35.54
39405;BME280;25121;51.090;17.038;2023-05-02T09:05:23;100232.91;;;23.43;35.38
39405;BME280;25121;51.090;17.038;2023-05-02T09:07:05;100240.56;;;23.41;35.70
39405;BME280;25121;51.090;17.038;2023-05-02T09:08:37;100244.72;;;23.44;35.62
39405;BME280;25121;51.090;17.038;2023-05-02T09:10:33;100260.34;;;23.43;36.37
39405;BME280;25121;51.090;17.038;2023-05-02T09:12:01;100254.22;;;23.36;36.07
39405;BME280;25121;51.090;17.038;2023-05-02T09:13:37;100252.25;;;23.32;36.28
39405;BME280;25121;51.090;17.038;2023-05-02T09:16:19;100255.50;;;23.29;36.37
39405;BME280;25121;51.090;17.038;2023-05-02T09:17:54;100264.38;;;23.36;36.62
39405;BME280;25121;51.090;17.038;2023-05-02T09:20:00;100265.44;;;23.35;36.91
39405;BME280;25121;51.090;17.038;2023-05-02T09:21:37;100276.22;;;23.41;36.51
39405;BME280;25121;51.090;17.038;2023-05-02T09:23:08;100261.34;;;23.37;36.13
39405;BME280;25121;51.090;17.038;2023-05-02T09:24:53;100268.00;;;23.41;36.45
39405;BME280;25121;51.090;17.038;2023-05-02T09:26:58;100260.47;;;23.54;36.53
39405;BME280;25121;51.090;17.038;2023-05-02T09:28:52;100274.22;;;23.81;36.31
39405;BME280;25121;51.090;17.038;2023-05-02T09:31:27;100277.38;;;23.95;36.19
39405;BME280;25121;51.090;17.038;2023-05-02T09:32:56;100268.28;;;24.21;35.76
39405;BME280;25121;51.090;17.038;2023-05-02T09:34:28;100288.31;;;24.49;35.60
39405;BME280;25121;51.090;17.038;2023-05-02T09:36:00;100263.03;;;24.47;35.55
39405;BME280;25121;51.090;17.038;2023-05-02T09:37:51;100292.06;;;24.70;35.66